Terminal Aerodrome Forecast
Issued by NWS

Home | Current Version | Previous Version | Graphics & Text | Print | Product List | Glossary On
Versions: 1 2 3 4 5 6 7 8 9 10 11 12 13 14 15 16 17 18
225
FTUS43 KGRB 180520
TAFAUW
TAF
KAUW 180520Z 1806/1906 35004KT P6SM SCT250
     FM181700 13006KT P6SM BKN120
     FM182200 10007KT P6SM VCSH OVC050
     FM190000 10006KT P6SM -SHRA OVC050=

USA.gov is the U.S. government's official web portal to all federal, state and local government web resources and services.